sensor_id;sensor_type;location;lat;lon;timestamp;temperature;humidity
6480;DHT22;71753;48.772;9.148;2023-11-25T00:01:22;2.09;90.80
6480;DHT22;71753;48.772;9.148;2023-11-25T00:03:49;2.17;89.93
6480;DHT22;71753;48.772;9.148;2023-11-25T00:06:16;2.13;89.71
6480;DHT22;71753;48.772;9.148;2023-11-25T00:08:45;2.16;90.60
6480;DHT22;71753;48.772;9.148;2023-11-25T00:11:12;2.13;90.90
6480;DHT22;71753;48.772;9.148;2023-11-25T00:13:39;2.12;90.52
6480;DHT22;71753;48.772;9.148;2023-11-25T00:16:07;2.13;89.27
6480;DHT22;71753;48.772;9.148;2023-11-25T00:18:35;2.14;88.92
6480;DHT22;71753;48.772;9.148;2023-11-25T00:21:02;2.15;88.91
6480;DHT22;71753;48.772;9.148;2023-11-25T00:23:29;2.23;87.55
6480;DHT22;71753;48.772;9.148;2023-11-25T00:25:56;2.25;88.18
6480;DHT22;71753;48.772;9.148;2023-11-25T00:28:22;2.28;88.67
6480;DHT22;71753;48.772;9.148;2023-11-25T00:30:49;2.30;87.52
6480;DHT22;71753;48.772;9.148;2023-11-25T00:33:15;2.36;86.37
6480;DHT22;71753;48.772;9.148;2023-11-25T00:35:43;2.36;87.10
6480;DHT22;71753;48.772;9.148;2023-11-25T00:38:10;2.36;87.49
6480;DHT22;71753;48.772;9.148;2023-11-25T00:40:37;2.36;86.20
6480;DHT22;71753;48.772;9.148;2023-11-25T00:43:03;2.41;86.32
6480;DHT22;71753;48.772;9.148;2023-11-25T00:45:31;2.41;85.76
6480;DHT22;71753;48.772;9.148;2023-11-25T00:47:58;2.40;86.52
6480;DHT22;71753;48.772;9.148;2023-11-25T00:50:25;2.42;85.92
6480;DHT22;71753;48.772;9.148;2023-11-25T00:52:53;2.41;85.60
6480;DHT22;71753;48.772;9.148;2023-11-25T00:55:20;2.40;86.40
6480;DHT22;71753;48.772;9.148;2023-11-25T00:57:47;2.37;86.80
6480;DHT22;71753;48.772;9.148;2023-11-25T01:00:15;2.40;86.80
6480;DHT22;71753;48.772;9.148;2023-11-25T01:02:42;2.42;85.30
6480;DHT22;71753;48.772;9.148;2023-11-25T01:05:09;2.43;84.28
6480;DHT22;71753;48.772;9.148;2023-11-25T01:07:36;2.44;83.49
6480;DHT22;71753;48.772;9.148;2023-11-25T01:10:05;2.46;82.38
6480;DHT22;71753;48.772;9.148;2023-11-25T01:12:32;2.49;80.15
6480;DHT22;71753;48.772;9.148;2023-11-25T01:15:02;2.47;81.82
6480;DHT22;71753;48.772;9.148;2023-11-25T01:17:29;2.45;82.96
6480;DHT22;71753;48.772;9.148;2023-11-25T01:19:56;2.40;81.36
6480;DHT22;71753;48.772;9.148;2023-11-25T01:22:23;2.38;81.65
6480;DHT22;71753;48.772;9.148;2023-11-25T01:24:50;2.37;83.13
6480;DHT22;71753;48.772;9.148;2023-11-25T01:27:18;2.36;82.46
6480;DHT22;71753;48.772;9.148;2023-11-25T01:29:46;2.25;82.84
6480;DHT22;71753;48.772;9.148;2023-11-25T01:32:12;2.22;82.74
6480;DHT22;71753;48.772;9.148;2023-11-25T01:34:39;2.20;82.52
6480;DHT22;71753;48.772;9.148;2023-11-25T01:37:06;2.16;83.39
6480;DHT22;71753;48.772;9.148;2023-11-25T01:39:33;2.13;83.61
6480;DHT22;71753;48.772;9.148;2023-11-25T01:42:00;2.17;82.94
6480;DHT22;71753;48.772;9.148;2023-11-25T01:44:28;2.22;83.07
6480;DHT22;71753;48.772;9.148;2023-11-25T01:46:55;2.22;83.24
6480;DHT22;71753;48.772;9.148;2023-11-25T01:49:22;2.26;82.80
6480;DHT22;71753;48.772;9.148;2023-11-25T01:51:49;2.23;82.59
6480;DHT22;71753;48.772;9.148;2023-11-25T01:54:17;2.17;83.13
6480;DHT22;71753;48.772;9.148;2023-11-25T01:56:48;2.17;84.15
6480;DHT22;71753;48.772;9.148;2023-11-25T01:59:15;2.14;83.23
6480;DHT22;71753;48.772;9.148;2023-11-25T02:01:44;2.10;83.07
6480;DHT22;71753;48.772;9.148;2023-11-25T02:04:11;2.13;83.23
6480;DHT22;71753;48.772;9.148;2023-11-25T02:06:38;2.15;82.26
6480;DHT22;71753;48.772;9.148;2023-11-25T02:09:05;2.20;81.95
6480;DHT22;71753;48.772;9.148;2023-11-25T02:11:32;2.19;81.75
6480;DHT22;71753;48.772;9.148;2023-11-25T02:13:59;2.19;82.23
6480;DHT22;71753;48.772;9.148;2023-11-25T02:16:26;2.21;82.10
6480;DHT22;71753;48.772;9.148;2023-11-25T02:18:54;2.21;83.04
6480;DHT22;71753;48.772;9.148;2023-11-25T02:21:20;2.20;83.18
6480;DHT22;71753;48.772;9.148;2023-11-25T02:23:48;2.16;81.67
6480;DHT22;71753;48.772;9.148;2023-11-25T02:26:15;2.13;82.27
6480;DHT22;71753;48.772;9.148;2023-11-25T02:28:43;2.09;82.36
6480;DHT22;71753;48.772;9.148;2023-11-25T02:31:09;2.09;82.18
6480;DHT22;71753;48.772;9.148;2023-11-25T02:33:37;2.06;81.68
6480;DHT22;71753;48.772;9.148;2023-11-25T02:36:05;2.01;81.83
6480;DHT22;71753;48.772;9.148;2023-11-25T02:38:33;1.90;83.23
6480;DHT22;71753;48.772;9.148;2023-11-25T02:41:01;1.86;81.74
6480;DHT22;71753;48.772;9.148;2023-11-25T02:43:29;1.79;83.37
6480;DHT22;71753;48.772;9.148;2023-11-25T02:45:56;1.75;83.52
6480;DHT22;71753;48.772;9.148;2023-11-25T02:48:23;1.71;83.52
6480;DHT22;71753;48.772;9.148;2023-11-25T02:50:50;1.75;82.49
6480;DHT22;71753;48.772;9.148;2023-11-25T02:53:17;1.77;82.16
6480;DHT22;71753;48.772;9.148;2023-11-25T02:55:44;1.76;82.06
6480;DHT22;71753;48.772;9.148;2023-11-25T02:58:12;1.73;82.28
6480;DHT22;71753;48.772;9.148;2023-11-25T03:00:39;1.71;82.01
6480;DHT22;71753;48.772;9.148;2023-11-25T03:03:06;1.71;81.77
6480;DHT22;71753;48.772;9.148;2023-11-25T03:05:38;1.60;83.25
6480;DHT22;71753;48.772;9.148;2023-11-25T03:08:08;1.56;84.03
6480;DHT22;71753;48.772;9.148;2023-11-25T03:10:38;1.64;82.32
6480;DHT22;71753;48.772;9.148;2023-11-25T03:13:06;1.66;81.98
6480;DHT22;71753;48.772;9.148;2023-11-25T03:15:35;1.77;81.94
6480;DHT22;71753;48.772;9.148;2023-11-25T03:18:03;1.76;82.01
6480;DHT22;71753;48.772;9.148;2023-11-25T03:20:31;1.84;81.80
6480;DHT22;71753;48.772;9.148;2023-11-25T03:22:57;1.81;83.16
6480;DHT22;71753;48.772;9.148;2023-11-25T03:25:24;1.82;81.78
6480;DHT22;71753;48.772;9.148;2023-11-25T03:27:53;1.85;81.91
6480;DHT22;71753;48.772;9.148;2023-11-25T03:30:19;1.86;82.14
6480;DHT22;71753;48.772;9.148;2023-11-25T03:32:49;1.81;83.67
6480;DHT22;71753;48.772;9.148;2023-11-25T03:35:16;1.78;83.65
6480;DHT22;71753;48.772;9.148;2023-11-25T03:37:43;1.82;81.94
6480;DHT22;71753;48.772;9.148;2023-11-25T03:40:10;1.85;82.33
6480;DHT22;71753;48.772;9.148;2023-11-25T03:42:39;1.87;81.39
6480;DHT22;71753;48.772;9.148;2023-11-25T03:45:06;1.82;82.69
6480;DHT22;71753;48.772;9.148;2023-11-25T03:47:33;1.80;82.62
6480;DHT22;71753;48.772;9.148;2023-11-25T03:50:01;1.80;80.46
6480;DHT22;71753;48.772;9.148;2023-11-25T03:52:28;1.90;81.43
6480;DHT22;71753;48.772;9.148;2023-11-25T03:54:55;1.81;81.28
6480;DHT22;71753;48.772;9.148;2023-11-25T03:57:22;1.86;81.83
6480;DHT22;71753;48.772;9.148;2023-11-25T03:59:49;1.84;81.41
6480;DHT22;71753;48.772;9.148;2023-11-25T04:02:16;1.86;82.19
6480;DHT22;71753;48.772;9.148;2023-11-25T04:04:42;1.88;81.81
6480;DHT22;71753;48.772;9.148;2023-11-25T04:07:11;1.88;81.51
6480;DHT22;71753;48.772;9.148;2023-11-25T04:09:37;1.80;81.03
6480;DHT22;71753;48.772;9.148;2023-11-25T04:12:04;1.82;81.77
6480;DHT22;71753;48.772;9.148;2023-11-25T04:14:31;1.85;82.36
6480;DHT22;71753;48.772;9.148;2023-11-25T04:16:58;1.92;80.41
6480;DHT22;71753;48.772;9.148;2023-11-25T04:19:24;1.87;81.75
6480;DHT22;71753;48.772;9.148;2023-11-25T04:21:52;1.82;82.26
6480;DHT22;71753;48.772;9.148;2023-11-25T04:24:25;1.92;79.72
6480;DHT22;71753;48.772;9.148;2023-11-25T04:26:52;1.92;80.07
6480;DHT22;71753;48.772;9.148;2023-11-25T04:29:19;1.90;80.39
6480;DHT22;71753;48.772;9.148;2023-11-25T04:31:46;1.95;79.14
6480;DHT22;71753;48.772;9.148;2023-11-25T04:34:15;1.94;80.47
6480;DHT22;71753;48.772;9.148;2023-11-25T04:36:41;1.88;81.03
6480;DHT22;71753;48.772;9.148;2023-11-25T04:39:08;1.94;80.81
6480;DHT22;71753;48.772;9.148;2023-11-25T04:41:40;1.90;79.88
6480;DHT22;71753;48.772;9.148;2023-11-25T04:44:07;1.84;80.52
6480;DHT22;71753;48.772;9.148;2023-11-25T04:46:34;1.81;81.28
6480;DHT22;71753;48.772;9.148;2023-11-25T04:49:00;1.72;81.04
6480;DHT22;71753;48.772;9.148;2023-11-25T04:51:29;1.67;81.77
6480;DHT22;71753;48.772;9.148;2023-11-25T04:53:56;1.57;81.39
6480;DHT22;71753;48.772;9.148;2023-11-25T04:56:23;1.54;81.21
6480;DHT22;71753;48.772;9.148;2023-11-25T04:58:52;1.41;82.18
6480;DHT22;71753;48.772;9.148;2023-11-25T05:01:18;1.45;81.82
6480;DHT22;71753;48.772;9.148;2023-11-25T05:03:46;1.40;82.24
6480;DHT22;71753;48.772;9.148;2023-11-25T05:06:13;1.41;82.24
6480;DHT22;71753;48.772;9.148;2023-11-25T05:08:39;1.48;82.17
6480;DHT22;71753;48.772;9.148;2023-11-25T05:11:07;1.51;81.73
6480;DHT22;71753;48.772;9.148;2023-11-25T05:13:34;1.45;83.29
6480;DHT22;71753;48.772;9.148;2023-11-25T05:16:04;1.48;81.29
6480;DHT22;71753;48.772;9.148;2023-11-25T05:18:31;1.48;80.13
6480;DHT22;71753;48.772;9.148;2023-11-25T05:20:57;1.41;81.24
6480;DHT22;71753;48.772;9.148;2023-11-25T05:23:24;1.35;82.07
6480;DHT22;71753;48.772;9.148;2023-11-25T05:25:51;1.33;81.31
6480;DHT22;71753;48.772;9.148;2023-11-25T05:28:19;1.14;83.72
6480;DHT22;71753;48.772;9.148;2023-11-25T05:30:47;1.23;81.24
6480;DHT22;71753;48.772;9.148;2023-11-25T05:33:15;1.20;81.93
6480;DHT22;71753;48.772;9.148;2023-11-25T05:35:41;1.24;80.65
6480;DHT22;71753;48.772;9.148;2023-11-25T05:38:08;1.25;81.56
6480;DHT22;71753;48.772;9.148;2023-11-25T05:40:35;1.22;81.13
6480;DHT22;71753;48.772;9.148;2023-11-25T05:43:03;1.04;83.36
6480;DHT22;71753;48.772;9.148;2023-11-25T05:45:29;0.93;84.26
6480;DHT22;71753;48.772;9.148;2023-11-25T05:47:57;0.87;84.21
6480;DHT22;71753;48.772;9.148;2023-11-25T05:50:25;0.98;83.52
6480;DHT22;71753;48.772;9.148;2023-11-25T05:52:52;1.03;83.63
6480;DHT22;71753;48.772;9.148;2023-11-25T05:55:20;0.99;83.10
6480;DHT22;71753;48.772;9.148;2023-11-25T05:57:46;0.98;84.03
6480;DHT22;71753;48.772;9.148;2023-11-25T06:00:16;1.04;82.97
6480;DHT22;71753;48.772;9.148;2023-11-25T06:02:42;0.94;84.01
6480;DHT22;71753;48.772;9.148;2023-11-25T06:05:09;1.03;82.96
6480;DHT22;71753;48.772;9.148;2023-11-25T06:07:37;0.95;83.55
6480;DHT22;71753;48.772;9.148;2023-11-25T06:10:04;1.01;83.00
6480;DHT22;71753;48.772;9.148;2023-11-25T06:12:32;1.09;81.38
6480;DHT22;71753;48.772;9.148;2023-11-25T06:14:59;1.01;83.39
6480;DHT22;71753;48.772;9.148;2023-11-25T06:17:25;1.11;82.58
6480;DHT22;71753;48.772;9.148;2023-11-25T06:19:53;1.22;81.51
6480;DHT22;71753;48.772;9.148;2023-11-25T06:22:19;1.38;79.99
6480;DHT22;71753;48.772;9.148;2023-11-25T06:24:48;1.34;82.37
6480;DHT22;71753;48.772;9.148;2023-11-25T06:27:15;1.36;81.55
6480;DHT22;71753;48.772;9.148;2023-11-25T06:29:45;1.40;81.33
6480;DHT22;71753;48.772;9.148;2023-11-25T06:32:11;1.42;81.31
6480;DHT22;71753;48.772;9.148;2023-11-25T06:34:38;1.35;82.94
6480;DHT22;71753;48.772;9.148;2023-11-25T06:37:05;1.31;83.31
6480;DHT22;71753;48.772;9.148;2023-11-25T06:39:32;1.34;82.94
6480;DHT22;71753;48.772;9.148;2023-11-25T06:42:00;1.43;81.74
6480;DHT22;71753;48.772;9.148;2023-11-25T06:44:27;1.51;81.39
6480;DHT22;71753;48.772;9.148;2023-11-25T06:46:55;1.46;82.71
6480;DHT22;71753;48.772;9.148;2023-11-25T06:49:21;1.46;82.54
6480;DHT22;71753;48.772;9.148;2023-11-25T06:51:48;1.48;81.84
6480;DHT22;71753;48.772;9.148;2023-11-25T06:54:15;1.49;83.36
6480;DHT22;71753;48.772;9.148;2023-11-25T06:56:42;1.50;82.21
6480;DHT22;71753;48.772;9.148;2023-11-25T06:59:10;1.54;81.64
6480;DHT22;71753;48.772;9.148;2023-11-25T07:01:36;1.58;82.04
6480;DHT22;71753;48.772;9.148;2023-11-25T07:04:03;1.57;81.48
6480;DHT22;71753;48.772;9.148;2023-11-25T07:06:30;1.57;82.39
6480;DHT22;71753;48.772;9.148;2023-11-25T07:08:57;1.65;81.19
6480;DHT22;71753;48.772;9.148;2023-11-25T07:11:25;1.62;82.17
6480;DHT22;71753;48.772;9.148;2023-11-25T07:13:52;1.58;81.38
6480;DHT22;71753;48.772;9.148;2023-11-25T07:16:21;1.62;81.00
6480;DHT22;71753;48.772;9.148;2023-11-25T07:18:48;1.57;82.42
6480;DHT22;71753;48.772;9.148;2023-11-25T07:21:15;1.57;82.64
6480;DHT22;71753;48.772;9.148;2023-11-25T07:23:42;1.61;81.36
6480;DHT22;71753;48.772;9.148;2023-11-25T07:26:09;1.63;82.04
6480;DHT22;71753;48.772;9.148;2023-11-25T07:28:37;1.62;82.07
6480;DHT22;71753;48.772;9.148;2023-11-25T07:31:04;1.67;81.88
6480;DHT22;71753;48.772;9.148;2023-11-25T07:33:32;1.69;80.52
6480;DHT22;71753;48.772;9.148;2023-11-25T07:35:59;1.68;81.08
6480;DHT22;71753;48.772;9.148;2023-11-25T07:38:26;1.75;79.73
6480;DHT22;71753;48.772;9.148;2023-11-25T07:40:53;1.76;80.81
6480;DHT22;71753;48.772;9.148;2023-11-25T07:43:20;1.82;78.79
6480;DHT22;71753;48.772;9.148;2023-11-25T07:45:49;1.84;80.07
6480;DHT22;71753;48.772;9.148;2023-11-25T07:48:16;1.86;79.10
6480;DHT22;71753;48.772;9.148;2023-11-25T07:50:44;1.86;80.61
6480;DHT22;71753;48.772;9.148;2023-11-25T07:53:11;1.87;80.01
6480;DHT22;71753;48.772;9.148;2023-11-25T07:55:37;1.92;78.60
6480;DHT22;71753;48.772;9.148;2023-11-25T07:58:05;1.96;79.02
6480;DHT22;71753;48.772;9.148;2023-11-25T08:00:32;1.93;80.46
6480;DHT22;71753;48.772;9.148;2023-11-25T08:02:58;1.95;78.73
6480;DHT22;71753;48.772;9.148;2023-11-25T08:05:25;1.99;79.46
6480;DHT22;71753;48.772;9.148;2023-11-25T08:07:55;1.96;78.88
6480;DHT22;71753;48.772;9.148;2023-11-25T08:10:23;1.99;78.98
6480;DHT22;71753;48.772;9.148;2023-11-25T08:12:50;2.07;78.87
6480;DHT22;71753;48.772;9.148;2023-11-25T08:15:17;2.09;78.56
6480;DHT22;71753;48.772;9.148;2023-11-25T08:17:44;2.08;78.75
6480;DHT22;71753;48.772;9.148;2023-11-25T08:20:11;2.14;79.92
6480;DHT22;71753;48.772;9.148;2023-11-25T08:22:39;2.12;78.40
6480;DHT22;71753;48.772;9.148;2023-11-25T08:25:08;2.24;78.94
6480;DHT22;71753;48.772;9.148;2023-11-25T08:27:35;2.30;79.47
6480;DHT22;71753;48.772;9.148;2023-11-25T08:30:02;2.43;78.35
6480;DHT22;71753;48.772;9.148;2023-11-25T08:32:32;2.38;80.03
6480;DHT22;71753;48.772;9.148;2023-11-25T08:34:59;2.32;78.24
6480;DHT22;71753;48.772;9.148;2023-11-25T08:37:26;2.36;77.97
6480;DHT22;71753;48.772;9.148;2023-11-25T08:39:53;2.46;78.67
6480;DHT22;71753;48.772;9.148;2023-11-25T08:42:21;2.52;78.37
6480;DHT22;71753;48.772;9.148;2023-11-25T08:44:50;2.54;79.64
6480;DHT22;71753;48.772;9.148;2023-11-25T08:47:17;2.58;78.45
6480;DHT22;71753;48.772;9.148;2023-11-25T08:49:44;2.58;78.50
6480;DHT22;71753;48.772;9.148;2023-11-25T08:52:11;2.64;77.95
6480;DHT22;71753;48.772;9.148;2023-11-25T08:54:38;2.73;78.20
6480;DHT22;71753;48.772;9.148;2023-11-25T08:57:05;2.73;78.59
6480;DHT22;71753;48.772;9.148;2023-11-25T08:59:35;2.76;78.52
6480;DHT22;71753;48.772;9.148;2023-11-25T09:02:04;2.76;78.66
6480;DHT22;71753;48.772;9.148;2023-11-25T09:04:34;2.79;78.88
6480;DHT22;71753;48.772;9.148;2023-11-25T09:07:01;2.85;79.31
6480;DHT22;71753;48.772;9.148;2023-11-25T09:09:28;2.91;79.16
6480;DHT22;71753;48.772;9.148;2023-11-25T09:11:55;2.97;79.61
6480;DHT22;71753;48.772;9.148;2023-11-25T09:14:21;3.03;77.89
6480;DHT22;71753;48.772;9.148;2023-11-25T09:16:49;2.94;79.14
6480;DHT22;71753;48.772;9.148;2023-11-25T09:19:16;2.95;78.32
6480;DHT22;71753;48.772;9.148;2023-11-25T09:21:43;3.11;78.11
6480;DHT22;71753;48.772;9.148;2023-11-25T09:24:10;3.10;78.00
6480;DHT22;71753;48.772;9.148;2023-11-25T09:26:37;3.25;79.30
6480;DHT22;71753;48.772;9.148;2023-11-25T09:29:04;3.24;78.23
6480;DHT22;71753;48.772;9.148;2023-11-25T09:31:30;3.06;78.22
6480;DHT22;71753;48.772;9.148;2023-11-25T09:33:59;3.04;79.51
6480;DHT22;71753;48.772;9.148;2023-11-25T09:36:28;2.98;79.06
6480;DHT22;71753;48.772;9.148;2023-11-25T09:38:55;3.09;78.95
6480;DHT22;71753;48.772;9.148;2023-11-25T09:41:22;3.14;78.18
6480;DHT22;71753;48.772;9.148;2023-11-25T09:43:49;3.31;76.68
6480;DHT22;71753;48.772;9.148;2023-11-25T09:46:16;3.30;77.09
6480;DHT22;71753;48.772;9.148;2023-11-25T09:48:43;3.45;77.44
6480;DHT22;71753;48.772;9.148;2023-11-25T09:51:12;3.55;77.47
6480;DHT22;71753;48.772;9.148;2023-11-25T09:53:43;3.55;76.86
6480;DHT22;71753;48.772;9.148;2023-11-25T09:56:10;3.75;76.96
6480;DHT22;71753;48.772;9.148;2023-11-25T09:58:39;3.68;76.82
6480;DHT22;71753;48.772;9.148;2023-11-25T10:01:06;3.60;75.10
6480;DHT22;71753;48.772;9.148;2023-11-25T10:03:39;3.65;75.50
6480;DHT22;71753;48.772;9.148;2023-11-25T10:06:08;3.75;76.06
6480;DHT22;71753;48.772;9.148;2023-11-25T10:08:36;3.74;74.47
6480;DHT22;71753;48.772;9.148;2023-11-25T10:11:04;3.79;74.62
6480;DHT22;71753;48.772;9.148;2023-11-25T10:13:35;3.94;74.31
6480;DHT22;71753;48.772;9.148;2023-11-25T10:16:02;3.84;73.51
6480;DHT22;71753;48.772;9.148;2023-11-25T10:18:29;3.84;74.26
6480;DHT22;71753;48.772;9.148;2023-11-25T10:20:56;3.97;75.18
6480;DHT22;71753;48.772;9.148;2023-11-25T10:23:24;3.90;73.41
6480;DHT22;71753;48.772;9.148;2023-11-25T10:25:53;3.84;73.17
6480;DHT22;71753;48.772;9.148;2023-11-25T10:28:20;3.73;73.10
6480;DHT22;71753;48.772;9.148;2023-11-25T10:30:54;3.83;73.33
6480;DHT22;71753;48.772;9.148;2023-11-25T10:33:22;3.98;73.96
6480;DHT22;71753;48.772;9.148;2023-11-25T10:35:49;3.86;73.02
6480;DHT22;71753;48.772;9.148;2023-11-25T10:38:16;3.95;73.73
6480;DHT22;71753;48.772;9.148;2023-11-25T10:40:45;4.27;75.17
6480;DHT22;71753;48.772;9.148;2023-11-25T10:43:13;4.65;72.83
6480;DHT22;71753;48.772;9.148;2023-11-25T10:45:41;4.58;71.92
6480;DHT22;71753;48.772;9.148;2023-11-25T10:48:08;4.80;72.05
6480;DHT22;71753;48.772;9.148;2023-11-25T10:50:36;4.73;72.13
6480;DHT22;71753;48.772;9.148;2023-11-25T10:53:04;4.92;69.65
6480;DHT22;71753;48.772;9.148;2023-11-25T10:55:31;5.23;71.64
6480;DHT22;71753;48.772;9.148;2023-11-25T10:57:59;5.35;68.55
6480;DHT22;71753;48.772;9.148;2023-11-25T11:00:29;5.47;67.62
6480;DHT22;71753;48.772;9.148;2023-11-25T11:02:57;4.83;67.65
6480;DHT22;71753;48.772;9.148;2023-11-25T11:05:31;4.81;67.54
6480;DHT22;71753;48.772;9.148;2023-11-25T11:08:00;4.72;67.95
6480;DHT22;71753;48.772;9.148;2023-11-25T11:10:33;4.65;68.46
6480;DHT22;71753;48.772;9.148;2023-11-25T11:13:04;4.86;68.33
6480;DHT22;71753;48.772;9.148;2023-11-25T11:15:35;4.62;69.39
6480;DHT22;71753;48.772;9.148;2023-11-25T11:18:10;4.28;70.75
6480;DHT22;71753;48.772;9.148;2023-11-25T11:20:41;4.30;72.53
6480;DHT22;71753;48.772;9.148;2023-11-25T11:23:12;4.34;71.93
6480;DHT22;71753;48.772;9.148;2023-11-25T11:25:46;4.48;71.37
6480;DHT22;71753;48.772;9.148;2023-11-25T11:28:19;4.62;72.10
6480;DHT22;71753;48.772;9.148;2023-11-25T11:31:05;4.72;70.61
6480;DHT22;71753;48.772;9.148;2023-11-25T11:33:37;4.83;69.59
6480;DHT22;71753;48.772;9.148;2023-11-25T11:36:04;4.51;70.88
6480;DHT22;71753;48.772;9.148;2023-11-25T11:38:31;4.82;72.10
6480;DHT22;71753;48.772;9.148;2023-11-25T11:40:59;4.38;71.11
6480;DHT22;71753;48.772;9.148;2023-11-25T11:43:26;4.16;72.74
6480;DHT22;71753;48.772;9.148;2023-11-25T11:45:55;4.08;75.12
6480;DHT22;71753;48.772;9.148;2023-11-25T11:48:24;3.93;76.12
6480;DHT22;71753;48.772;9.148;2023-11-25T11:50:51;3.38;80.24
6480;DHT22;71753;48.772;9.148;2023-11-25T11:53:20;3.09;81.76
6480;DHT22;71753;48.772;9.148;2023-11-25T11:55:49;3.01;84.61
6480;DHT22;71753;48.772;9.148;2023-11-25T11:58:18;2.86;87.03
6480;DHT22;71753;48.772;9.148;2023-11-25T12:00:47;2.60;87.93
6480;DHT22;71753;48.772;9.148;2023-11-25T12:03:16;2.72;89.01
6480;DHT22;71753;48.772;9.148;2023-11-25T12:05:43;2.72;88.94
6480;DHT22;71753;48.772;9.148;2023-11-25T12:08:10;2.83;88.44
6480;DHT22;71753;48.772;9.148;2023-11-25T12:10:37;2.93;88.18
6480;DHT22;71753;48.772;9.148;2023-11-25T12:13:04;3.11;87.11
6480;DHT22;71753;48.772;9.148;2023-11-25T12:15:31;3.21;87.09
6480;DHT22;71753;48.772;9.148;2023-11-25T12:17:58;2.98;86.89
6480;DHT22;71753;48.772;9.148;2023-11-25T12:20:27;3.03;87.89
6480;DHT22;71753;48.772;9.148;2023-11-25T12:22:55;3.08;86.77
6480;DHT22;71753;48.772;9.148;2023-11-25T12:25:23;3.01;86.22
6480;DHT22;71753;48.772;9.148;2023-11-25T12:27:54;2.94;86.48
6480;DHT22;71753;48.772;9.148;2023-11-25T12:30:24;2.87;86.32
6480;DHT22;71753;48.772;9.148;2023-11-25T12:32:50;2.87;86.15
6480;DHT22;71753;48.772;9.148;2023-11-25T12:35:17;2.90;85.36
6480;DHT22;71753;48.772;9.148;2023-11-25T12:37:45;3.02;86.00
6480;DHT22;71753;48.772;9.148;2023-11-25T12:40:15;2.93;86.94
6480;DHT22;71753;48.772;9.148;2023-11-25T12:42:44;2.97;85.33
6480;DHT22;71753;48.772;9.148;2023-11-25T12:45:10;2.99;85.87
6480;DHT22;71753;48.772;9.148;2023-11-25T12:47:46;2.97;86.64
6480;DHT22;71753;48.772;9.148;2023-11-25T12:50:15;3.02;85.87
6480;DHT22;71753;48.772;9.148;2023-11-25T12:52:44;2.97;86.35
6480;DHT22;71753;48.772;9.148;2023-11-25T12:55:32;2.94;84.85
6480;DHT22;71753;48.772;9.148;2023-11-25T12:58:04;3.08;84.16
6480;DHT22;71753;48.772;9.148;2023-11-25T13:00:32;3.24;85.96
6480;DHT22;71753;48.772;9.148;2023-11-25T13:02:59;3.40;84.61
6480;DHT22;71753;48.772;9.148;2023-11-25T13:05:25;3.46;83.82
6480;DHT22;71753;48.772;9.148;2023-11-25T13:08:28;3.47;84.03
6480;DHT22;71753;48.772;9.148;2023-11-25T13:14:20;3.18;85.00
6480;DHT22;71753;48.772;9.148;2023-11-25T13:16:56;3.17;85.22
6480;DHT22;71753;48.772;9.148;2023-11-25T13:19:23;3.24;85.21
6480;DHT22;71753;48.772;9.148;2023-11-25T13:21:56;3.18;85.74
6480;DHT22;71753;48.772;9.148;2023-11-25T13:24:27;3.39;85.48
6480;DHT22;71753;48.772;9.148;2023-11-25T13:26:53;3.21;85.28
6480;DHT22;71753;48.772;9.148;2023-11-25T13:29:21;3.20;85.61
6480;DHT22;71753;48.772;9.148;2023-11-25T13:31:48;3.13;85.81
6480;DHT22;71753;48.772;9.148;2023-11-25T13:34:15;3.13;85.23
6480;DHT22;71753;48.772;9.148;2023-11-25T13:36:42;3.06;86.76
6480;DHT22;71753;48.772;9.148;2023-11-25T13:39:09;3.10;85.41
6480;DHT22;71753;48.772;9.148;2023-11-25T13:41:41;3.12;86.42
6480;DHT22;71753;48.772;9.148;2023-11-25T13:44:10;3.17;85.79
6480;DHT22;71753;48.772;9.148;2023-11-25T13:46:36;3.13;85.53
6480;DHT22;71753;48.772;9.148;2023-11-25T13:49:03;3.14;85.54
6480;DHT22;71753;48.772;9.148;2023-11-25T13:51:30;3.15;85.27
6480;DHT22;71753;48.772;9.148;2023-11-25T13:53:56;3.18;85.27
6480;DHT22;71753;48.772;9.148;2023-11-25T13:56:23;3.15;84.32
6480;DHT22;71753;48.772;9.148;2023-11-25T13:58:51;3.23;85.90
6480;DHT22;71753;48.772;9.148;2023-11-25T14:01:18;3.16;85.11
6480;DHT22;71753;48.772;9.148;2023-11-25T14:03:46;3.12;85.00
6480;DHT22;71753;48.772;9.148;2023-11-25T14:06:13;3.10;86.07
6480;DHT22;71753;48.772;9.148;2023-11-25T14:08:40;3.16;84.70
6480;DHT22;71753;48.772;9.148;2023-11-25T14:11:06;3.17;86.22
6480;DHT22;71753;48.772;9.148;2023-11-25T14:13:34;3.19;83.95
6480;DHT22;71753;48.772;9.148;2023-11-25T14:16:02;3.20;84.68
6480;DHT22;71753;48.772;9.148;2023-11-25T14:18:30;3.21;83.58
6480;DHT22;71753;48.772;9.148;2023-11-25T14:20:57;3.18;85.13
6480;DHT22;71753;48.772;9.148;2023-11-25T14:23:23;3.24;83.52
6480;DHT22;71753;48.772;9.148;2023-11-25T14:25:50;3.29;83.94
6480;DHT22;71753;48.772;9.148;2023-11-25T14:28:16;3.24;84.71
6480;DHT22;71753;48.772;9.148;2023-11-25T14:30:43;3.28;85.19
6480;DHT22;71753;48.772;9.148;2023-11-25T14:33:11;3.27;83.61
6480;DHT22;71753;48.772;9.148;2023-11-25T14:35:38;3.27;85.35
6480;DHT22;71753;48.772;9.148;2023-11-25T14:38:04;3.32;83.43
6480;DHT22;71753;48.772;9.148;2023-11-25T14:40:31;3.32;84.88
6480;DHT22;71753;48.772;9.148;2023-11-25T14:43:01;3.40;83.39
6480;DHT22;71753;48.772;9.148;2023-11-25T14:45:27;3.39;83.11
6480;DHT22;71753;48.772;9.148;2023-11-25T14:47:54;3.40;83.10
6480;DHT22;71753;48.772;9.148;2023-11-25T14:50:22;3.43;82.94
6480;DHT22;71753;48.772;9.148;2023-11-25T14:52:49;3.40;82.65
6480;DHT22;71753;48.772;9.148;2023-11-25T14:55:16;3.42;83.20
6480;DHT22;71753;48.772;9.148;2023-11-25T14:57:43;3.45;84.32
6480;DHT22;71753;48.772;9.148;2023-11-25T15:00:10;3.47;83.52
6480;DHT22;71753;48.772;9.148;2023-11-25T15:02:39;3.50;81.94
6480;DHT22;71753;48.772;9.148;2023-11-25T15:05:06;3.57;81.66
6480;DHT22;71753;48.772;9.148;2023-11-25T15:07:36;3.54;83.78
6480;DHT22;71753;48.772;9.148;2023-11-25T15:10:03;3.48;82.80
6480;DHT22;71753;48.772;9.148;2023-11-25T15:12:30;3.49;83.03
6480;DHT22;71753;48.772;9.148;2023-11-25T15:14:56;3.55;81.65
6480;DHT22;71753;48.772;9.148;2023-11-25T15:17:23;3.55;81.40
6480;DHT22;71753;48.772;9.148;2023-11-25T15:19:51;3.55;81.86
6480;DHT22;71753;48.772;9.148;2023-11-25T15:22:17;3.58;81.23
6480;DHT22;71753;48.772;9.148;2023-11-25T15:24:45;3.57;81.36
6480;DHT22;71753;48.772;9.148;2023-11-25T15:27:13;3.53;82.42
6480;DHT22;71753;48.772;9.148;2023-11-25T15:29:42;3.49;82.08
6480;DHT22;71753;48.772;9.148;2023-11-25T15:32:08;3.45;82.04
6480;DHT22;71753;48.772;9.148;2023-11-25T15:34:35;3.53;81.92
6480;DHT22;71753;48.772;9.148;2023-11-25T15:37:02;3.54;80.40
6480;DHT22;71753;48.772;9.148;2023-11-25T15:39:29;3.55;80.49
6480;DHT22;71753;48.772;9.148;2023-11-25T15:41:57;3.50;81.33
6480;DHT22;71753;48.772;9.148;2023-11-25T15:44:24;3.52;79.56
6480;DHT22;71753;48.772;9.148;2023-11-25T15:46:51;3.54;80.22
6480;DHT22;71753;48.772;9.148;2023-11-25T15:49:18;3.47;81.19
6480;DHT22;71753;48.772;9.148;2023-11-25T15:51:44;3.59;78.24
6480;DHT22;71753;48.772;9.148;2023-11-25T15:54:12;3.57;79.51
6480;DHT22;71753;48.772;9.148;2023-11-25T15:56:38;3.57;79.56
6480;DHT22;71753;48.772;9.148;2023-11-25T15:59:07;3.52;80.80
6480;DHT22;71753;48.772;9.148;2023-11-25T16:01:35;3.50;80.52
6480;DHT22;71753;48.772;9.148;2023-11-25T16:04:02;3.56;79.97
6480;DHT22;71753;48.772;9.148;2023-11-25T16:06:29;3.53;80.58
6480;DHT22;71753;48.772;9.148;2023-11-25T16:08:56;3.49;81.14